Flight Track Log - Related Links

Times and Time Zones

All times are in EDT time to prevent confusion due to time zone crossing. See the JZA381 flight status page for this flight to view local times or setup timezone preferences in your user account.

Time Position Orientation Groundspeed Altitude Reporting Facility
EDT Latitude Longitude Course Direction KTS MPH feet Rate Location/Type
Mon 08:33:36 AM 56.6333 -111.3167 270° West 150 173 2,700  Level Edmonton Center
Mon 08:34:36 AM 56.6333 -111.4167 190° South 180 207 3,700 1,200 Climbing Edmonton Center
Mon 08:35:36 AM 56.5833 -111.4333 209° Southwest 180 207 5,100 1,300 Climbing Edmonton Center
Mon 08:36:36 AM 56.5333 -111.4833 209° Southwest 190 219 6,300 1,200 Climbing Edmonton Center
Mon 08:37:36 AM 56.5000 -111.5167 188° South 190 219 7,500 1,300 Climbing Edmonton Center
Mon 08:38:36 AM 56.4333 -111.5333 209° Southwest 190 219 8,900 1,300 Climbing Edmonton Center
Mon 08:39:36 AM 56.3833 -111.5833 190° South 190 219 10,100 1,200 Climbing Edmonton Center
Mon 08:40:36 AM 56.3333 -111.6000 209° Southwest 190 219 11,300 1,200 Climbing Edmonton Center
Mon 08:41:36 AM 56.2833 -111.6500 200° South 200 230 12,500 1,100 Climbing Edmonton Center
Mon 08:42:36 AM 56.2333 -111.6833 203° Southwest 200 230 13,500 1,000 Climbing Edmonton Center
Mon 08:43:36 AM 56.1667 -111.7333 191° South 200 230 14,500 1,000 Climbing Edmonton Center
Mon 08:44:36 AM 56.1167 -111.7500 209° Southwest 210 242 15,500 950 Climbing Edmonton Center
Mon 08:45:36 AM 56.0667 -111.8000 203° Southwest 210 242 16,400 1,000 Climbing Edmonton Center
Mon 08:46:36 AM 56.0000 -111.8500 191° South 210 242 17,500 1,050 Climbing Edmonton Center
Mon 08:47:36 AM 55.9500 -111.8667 209° Southwest 210 242 18,500 950 Climbing Edmonton Center
Mon 08:48:36 AM 55.9000 -111.9167 196° South 210 242 19,400 800 Climbing Edmonton Center
Mon 08:49:36 AM 55.8333 -111.9500 209° Southwest 220 253 20,100 700 Climbing Edmonton Center
Mon 08:50:36 AM 55.7833 -112.0000 196° South 220 253 20,800 700 Climbing Edmonton Center
Mon 08:51:36 AM 55.7167 -112.0333 201° Southwest 220 253 21,500 600 Climbing Edmonton Center
Mon 08:52:36 AM 55.6667 -112.0667 199° South 220 253 22,000 250 Climbing Edmonton Center
Mon 08:53:36 AM 55.5833 -112.1167 210° Southwest 240 276 22,000  Level Edmonton Center
Mon 08:54:36 AM 55.5333 -112.1667 196° South 250 288 22,000  Level Edmonton Center
Mon 08:55:36 AM 55.4667 -112.2000 203° Southwest 270 311 22,000  Level Edmonton Center
Mon 08:56:36 AM 55.4000 -112.2500 196° South 270 311 22,000  Level Edmonton Center
Mon 08:57:36 AM 55.3000 -112.3000 203° Southwest 270 311 22,000  Level Edmonton Center
Mon 08:58:36 AM 55.2333 -112.3500 201° Southwest 270 311 22,000  Level Edmonton Center
Mon 08:59:36 AM 55.1833 -112.3833 199° South 270 311 22,000  Level Edmonton Center
Mon 09:00:36 AM 55.1000 -112.4333 203° Southwest 270 311 22,000  Level Edmonton Center
Mon 09:01:36 AM 55.0333 -112.4833 205° Southwest 270 311 22,000  Level Edmonton Center
Mon 09:02:36 AM 54.9500 -112.5500 188° South 270 311 22,000  Level Edmonton Center
Mon 09:03:36 AM 54.8833 -112.5667 224° Southwest 270 311 22,000  Level Edmonton Center
Mon 09:04:36 AM 54.8333 -112.6500 199° South 270 311 22,000  Level Edmonton Center
Mon 09:05:36 AM 54.7500 -112.7000 196° South 270 311 22,000  Level Edmonton Center
Mon 09:06:36 AM 54.6833 -112.7333 216° Southwest 270 311 22,000  Level Edmonton Center
Mon 09:07:36 AM 54.6167 -112.8167 193° South 270 311 22,000  Level Edmonton Center
Mon 09:08:36 AM 54.5333 -112.8500 204° Southwest 270 311 22,000  Level Edmonton Center
Mon 09:09:36 AM 54.4667 -112.9000 210° Southwest 270 311 22,000  Level Edmonton Center
Mon 09:10:37 AM 54.4000 -112.9667 204° Southwest 270 311 22,000  Level Edmonton Center
Mon 09:11:37 AM 54.3333 -113.0167 204° Southwest 270 311 22,000  Level Edmonton Center
Mon 09:12:37 AM 54.2667 -113.0667 210° Southwest 270 311 22,000 -300 Level Edmonton Center
Mon 09:13:37 AM 54.2000 -113.1333 199° South 270 311 21,400 -1,059 Descending Edmonton Center
Mon 09:14:36 AM 54.1167 -113.1833 205° Southwest 290 334 19,900 -1,450 Descending Edmonton Center
Mon 09:15:37 AM 54.0333 -113.2500 204° Southwest 290 334 18,500 -1,636 Descending Edmonton Center
Mon 09:16:37 AM 53.9667 -113.3000 218° Southwest 280 322 16,600 -1,700 Descending Edmonton Center
Mon 09:17:37 AM 53.9167 -113.3667 205° Southwest 280 322 15,100 -1,450 Descending Edmonton Center
Mon 09:18:37 AM 53.8333 -113.4333 204° Southwest 280 322 13,700 -1,500 Descending Edmonton Center
Mon 09:19:37 AM 53.7667 -113.4833 211° Southwest 270 311 12,100 -1,500 Descending Edmonton Center
Mon 09:20:37 AM 53.7167 -113.5333 211° Southwest 250 288 10,700 -1,500 Descending Edmonton Center
Mon 09:21:37 AM 53.6500 -113.6000 211° Southwest 240 276 9,100 -1,500 Descending Edmonton Center
Mon 09:22:37 AM 53.6000 -113.6500 197° South 240 276 7,700 -1,500 Descending Edmonton Center
Mon 09:23:37 AM 53.5333 -113.6833 204° Southwest 230 265 6,100 -1,400 Descending Edmonton Center
Mon 09:24:37 AM 53.4667 -113.7333 169° South 220 253 4,900 -900 Descending Edmonton Center
Mon 09:25:37 AM 53.4167 -113.7167 180° South 200 230 4,300 -600 Descending Edmonton Center
Mon 09:26:37 AM 53.3667 -113.7167 169° South 190 219 3,700 -450 Descending Edmonton Center
Mon 09:27:37 AM 53.3167 -113.7000 130° Southeast 150 173 3,400 -350 Descending Edmonton Center
Mon 09:28:37 AM 53.3000 -113.6667 130° Southeast 120 138 3,000 -500 Descending Edmonton Center
Mon 09:29:37 AM 53.2833 -113.6333 130° Southeast 120 138 2,400 -350 Descending Edmonton Center
Mon 09:30:37 AM 53.2667 -113.6000 130° Southeast 110 127 2,300 -100 Descending Edmonton Center

Login

Don't have an account? Register now (free) for customized features, flight alerts, and more!